sensor_id;sensor_type;location;lat;lon;timestamp;P1;durP1;ratioP1;P2;durP2;ratioP2
70545;SDS011;58098;51.680;5.134;2024-02-14T00:00:02;17.95;;;14.07;;
70545;SDS011;58098;51.680;5.134;2024-02-14T00:02:28;14.53;;;11.50;;
70545;SDS011;58098;51.680;5.134;2024-02-14T00:04:53;12.87;;;10.10;;
70545;SDS011;58098;51.680;5.134;2024-02-14T00:07:19;16.20;;;11.80;;
70545;SDS011;58098;51.680;5.134;2024-02-14T00:09:45;14.27;;;11.27;;
70545;SDS011;58098;51.680;5.134;2024-02-14T00:12:11;12.07;;;9.63;;
70545;SDS011;58098;51.680;5.134;2024-02-14T00:14:37;13.97;;;10.77;;
70545;SDS011;58098;51.680;5.134;2024-02-14T00:17:02;18.45;;;11.60;;
70545;SDS011;58098;51.680;5.134;2024-02-14T00:19:28;12.93;;;11.40;;
70545;SDS011;58098;51.680;5.134;2024-02-14T00:21:53;12.90;;;9.03;;
70545;SDS011;58098;51.680;5.134;2024-02-14T00:24:19;14.53;;;11.50;;
70545;SDS011;58098;51.680;5.134;2024-02-14T00:26:44;12.60;;;9.43;;
70545;SDS011;58098;51.680;5.134;2024-02-14T00:29:11;13.03;;;10.03;;
70545;SDS011;58098;51.680;5.134;2024-02-14T00:31:36;13.38;;;10.52;;
70545;SDS011;58098;51.680;5.134;2024-02-14T00:34:02;14.50;;;9.70;;
70545;SDS011;58098;51.680;5.134;2024-02-14T00:36:27;14.63;;;9.20;;
70545;SDS011;58098;51.680;5.134;2024-02-14T00:38:52;17.60;;;10.00;;
70545;SDS011;58098;51.680;5.134;2024-02-14T00:41:18;13.00;;;9.90;;
70545;SDS011;58098;51.680;5.134;2024-02-14T00:43:43;10.85;;;8.18;;
70545;SDS011;58098;51.680;5.134;2024-02-14T00:46:08;15.00;;;10.13;;
70545;SDS011;58098;51.680;5.134;2024-02-14T00:48:34;11.13;;;7.97;;
70545;SDS011;58098;51.680;5.134;2024-02-14T00:50:59;13.07;;;9.83;;
70545;SDS011;58098;51.680;5.134;2024-02-14T00:53:25;12.93;;;9.20;;
70545;SDS011;58098;51.680;5.134;2024-02-14T00:55:50;9.77;;;6.87;;
70545;SDS011;58098;51.680;5.134;2024-02-14T00:58:16;10.65;;;8.63;;
70545;SDS011;58098;51.680;5.134;2024-02-14T01:00:41;13.00;;;8.60;;
70545;SDS011;58098;51.680;5.134;2024-02-14T01:03:07;12.30;;;7.53;;
70545;SDS011;58098;51.680;5.134;2024-02-14T01:05:33;11.80;;;8.68;;
70545;SDS011;58098;51.680;5.134;2024-02-14T01:07:58;16.13;;;9.80;;
70545;SDS011;58098;51.680;5.134;2024-02-14T01:10:23;15.40;;;9.03;;
70545;SDS011;58098;51.680;5.134;2024-02-14T01:12:49;14.00;;;8.90;;
70545;SDS011;58098;51.680;5.134;2024-02-14T01:15:14;13.43;;;9.13;;
70545;SDS011;58098;51.680;5.134;2024-02-14T01:17:40;12.33;;;10.20;;
70545;SDS011;58098;51.680;5.134;2024-02-14T01:20:05;11.50;;;9.33;;
70545;SDS011;58098;51.680;5.134;2024-02-14T01:22:34;17.05;;;10.57;;
70545;SDS011;58098;51.680;5.134;2024-02-14T01:24:59;12.52;;;8.75;;
70545;SDS011;58098;51.680;5.134;2024-02-14T01:27:25;14.47;;;9.73;;
70545;SDS011;58098;51.680;5.134;2024-02-14T01:29:50;14.97;;;9.00;;
70545;SDS011;58098;51.680;5.134;2024-02-14T01:32:15;14.40;;;8.83;;
70545;SDS011;58098;51.680;5.134;2024-02-14T01:34:41;10.50;;;7.70;;
70545;SDS011;58098;51.680;5.134;2024-02-14T01:37:08;17.17;;;10.45;;
70545;SDS011;58098;51.680;5.134;2024-02-14T01:39:36;11.55;;;7.63;;
70545;SDS011;58098;51.680;5.134;2024-02-14T01:42:02;11.93;;;7.73;;
70545;SDS011;58098;51.680;5.134;2024-02-14T01:44:31;10.93;;;8.00;;
70545;SDS011;58098;51.680;5.134;2024-02-14T01:46:58;12.23;;;9.60;;
70545;SDS011;58098;51.680;5.134;2024-02-14T01:49:24;13.13;;;8.63;;
70545;SDS011;58098;51.680;5.134;2024-02-14T01:51:52;10.50;;;8.77;;
70545;SDS011;58098;51.680;5.134;2024-02-14T01:54:18;13.77;;;9.13;;
70545;SDS011;58098;51.680;5.134;2024-02-14T01:56:43;11.93;;;8.60;;
70545;SDS011;58098;51.680;5.134;2024-02-14T01:59:10;17.88;;;10.63;;
70545;SDS011;58098;51.680;5.134;2024-02-14T02:01:35;11.68;;;8.57;;
70545;SDS011;58098;51.680;5.134;2024-02-14T02:04:01;15.73;;;10.17;;
70545;SDS011;58098;51.680;5.134;2024-02-14T02:06:27;13.82;;;8.95;;
70545;SDS011;58098;51.680;5.134;2024-02-14T02:08:53;11.37;;;8.57;;
70545;SDS011;58098;51.680;5.134;2024-02-14T02:11:19;12.70;;;9.15;;
70545;SDS011;58098;51.680;5.134;2024-02-14T02:13:45;11.73;;;10.00;;
70545;SDS011;58098;51.680;5.134;2024-02-14T02:16:10;16.10;;;11.73;;
70545;SDS011;58098;51.680;5.134;2024-02-14T02:18:36;13.60;;;9.07;;
70545;SDS011;58098;51.680;5.134;2024-02-14T02:21:02;14.73;;;10.65;;
70545;SDS011;58098;51.680;5.134;2024-02-14T02:23:31;13.00;;;9.75;;
70545;SDS011;58098;51.680;5.134;2024-02-14T02:25:57;13.27;;;10.03;;
70545;SDS011;58098;51.680;5.134;2024-02-14T02:28:22;12.70;;;8.83;;
70545;SDS011;58098;51.680;5.134;2024-02-14T02:30:48;9.88;;;8.40;;
70545;SDS011;58098;51.680;5.134;2024-02-14T02:33:14;11.63;;;9.13;;
70545;SDS011;58098;51.680;5.134;2024-02-14T02:35:41;19.40;;;11.67;;
70545;SDS011;58098;51.680;5.134;2024-02-14T02:38:07;15.40;;;10.65;;
70545;SDS011;58098;51.680;5.134;2024-02-14T02:40:32;20.13;;;12.27;;
70545;SDS011;58098;51.680;5.134;2024-02-14T02:42:58;14.67;;;10.83;;
70545;SDS011;58098;51.680;5.134;2024-02-14T02:45:24;17.77;;;11.33;;
70545;SDS011;58098;51.680;5.134;2024-02-14T02:47:49;14.02;;;11.05;;
70545;SDS011;58098;51.680;5.134;2024-02-14T02:50:16;15.93;;;11.15;;
70545;SDS011;58098;51.680;5.134;2024-02-14T02:52:42;18.87;;;11.40;;
70545;SDS011;58098;51.680;5.134;2024-02-14T02:55:07;17.07;;;11.63;;
70545;SDS011;58098;51.680;5.134;2024-02-14T02:57:32;15.52;;;11.77;;
70545;SDS011;58098;51.680;5.134;2024-02-14T02:59:59;19.13;;;12.63;;
70545;SDS011;58098;51.680;5.134;2024-02-14T03:02:24;16.00;;;11.90;;
70545;SDS011;58098;51.680;5.134;2024-02-14T03:04:51;20.67;;;12.57;;
70545;SDS011;58098;51.680;5.134;2024-02-14T03:07:17;17.60;;;12.00;;
70545;SDS011;58098;51.680;5.134;2024-02-14T03:09:43;18.95;;;12.98;;
70545;SDS011;58098;51.680;5.134;2024-02-14T03:12:09;15.37;;;12.50;;
70545;SDS011;58098;51.680;5.134;2024-02-14T03:14:34;18.08;;;13.25;;
70545;SDS011;58098;51.680;5.134;2024-02-14T03:17:04;16.23;;;12.00;;
70545;SDS011;58098;51.680;5.134;2024-02-14T03:19:29;20.70;;;13.53;;
70545;SDS011;58098;51.680;5.134;2024-02-14T03:21:55;18.58;;;12.48;;
70545;SDS011;58098;51.680;5.134;2024-02-14T03:24:21;20.53;;;14.73;;
70545;SDS011;58098;51.680;5.134;2024-02-14T03:26:47;19.33;;;12.07;;
70545;SDS011;58098;51.680;5.134;2024-02-14T03:29:13;15.20;;;11.77;;
70545;SDS011;58098;51.680;5.134;2024-02-14T03:31:38;17.50;;;11.33;;
70545;SDS011;58098;51.680;5.134;2024-02-14T03:34:04;20.60;;;14.00;;
70545;SDS011;58098;51.680;5.134;2024-02-14T03:36:30;20.02;;;11.15;;
70545;SDS011;58098;51.680;5.134;2024-02-14T03:38:57;16.10;;;11.90;;
70545;SDS011;58098;51.680;5.134;2024-02-14T03:41:24;20.52;;;11.68;;
70545;SDS011;58098;51.680;5.134;2024-02-14T03:43:49;15.07;;;10.27;;
70545;SDS011;58098;51.680;5.134;2024-02-14T03:46:15;18.48;;;11.40;;
70545;SDS011;58098;51.680;5.134;2024-02-14T03:48:43;16.57;;;10.67;;
70545;SDS011;58098;51.680;5.134;2024-02-14T03:51:08;19.70;;;12.57;;
70545;SDS011;58098;51.680;5.134;2024-02-14T03:53:34;18.70;;;12.93;;
70545;SDS011;58098;51.680;5.134;2024-02-14T03:55:59;22.93;;;12.33;;
70545;SDS011;58098;51.680;5.134;2024-02-14T03:58:24;23.17;;;14.43;;
70545;SDS011;58098;51.680;5.134;2024-02-14T04:00:50;24.33;;;14.45;;
70545;SDS011;58098;51.680;5.134;2024-02-14T04:03:16;22.20;;;14.87;;
70545;SDS011;58098;51.680;5.134;2024-02-14T04:05:41;16.77;;;12.43;;
70545;SDS011;58098;51.680;5.134;2024-02-14T04:08:07;18.27;;;12.90;;
70545;SDS011;58098;51.680;5.134;2024-02-14T04:10:34;16.08;;;11.70;;
70545;SDS011;58098;51.680;5.134;2024-02-14T04:13:00;20.30;;;11.50;;
70545;SDS011;58098;51.680;5.134;2024-02-14T04:15:26;18.08;;;12.60;;
70545;SDS011;58098;51.680;5.134;2024-02-14T04:17:51;19.20;;;12.50;;
70545;SDS011;58098;51.680;5.134;2024-02-14T04:20:16;15.33;;;11.37;;
70545;SDS011;58098;51.680;5.134;2024-02-14T04:22:42;16.57;;;10.40;;
70545;SDS011;58098;51.680;5.134;2024-02-14T04:25:08;18.73;;;12.32;;
70545;SDS011;58098;51.680;5.134;2024-02-14T04:27:34;19.87;;;12.23;;
70545;SDS011;58098;51.680;5.134;2024-02-14T04:30:00;19.00;;;12.00;;
70545;SDS011;58098;51.680;5.134;2024-02-14T04:32:26;16.45;;;12.23;;
70545;SDS011;58098;51.680;5.134;2024-02-14T04:34:51;21.67;;;14.40;;
70545;SDS011;58098;51.680;5.134;2024-02-14T04:37:17;16.50;;;10.93;;
70545;SDS011;58098;51.680;5.134;2024-02-14T04:39:43;22.38;;;14.63;;
70545;SDS011;58098;51.680;5.134;2024-02-14T04:42:09;20.37;;;13.53;;
70545;SDS011;58098;51.680;5.134;2024-02-14T04:44:34;20.33;;;13.13;;
70545;SDS011;58098;51.680;5.134;2024-02-14T04:47:00;20.17;;;15.07;;
70545;SDS011;58098;51.680;5.134;2024-02-14T04:49:25;17.98;;;13.30;;
70545;SDS011;58098;51.680;5.134;2024-02-14T04:51:51;20.17;;;14.80;;
70545;SDS011;58098;51.680;5.134;2024-02-14T04:54:17;20.33;;;12.95;;
70545;SDS011;58098;51.680;5.134;2024-02-14T04:56:43;17.13;;;11.13;;
70545;SDS011;58098;51.680;5.134;2024-02-14T04:59:08;23.77;;;17.27;;
70545;SDS011;58098;51.680;5.134;2024-02-14T05:01:34;21.75;;;14.23;;
70545;SDS011;58098;51.680;5.134;2024-02-14T05:03:59;20.03;;;13.90;;
70545;SDS011;58098;51.680;5.134;2024-02-14T05:06:25;24.50;;;16.60;;
70545;SDS011;58098;51.680;5.134;2024-02-14T05:08:50;23.97;;;15.40;;
70545;SDS011;58098;51.680;5.134;2024-02-14T05:11:16;22.30;;;13.93;;
70545;SDS011;58098;51.680;5.134;2024-02-14T05:13:42;21.10;;;14.13;;
70545;SDS011;58098;51.680;5.134;2024-02-14T05:16:09;26.10;;;15.02;;
70545;SDS011;58098;51.680;5.134;2024-02-14T05:18:36;25.60;;;16.50;;
70545;SDS011;58098;51.680;5.134;2024-02-14T05:21:04;25.30;;;16.65;;
70545;SDS011;58098;51.680;5.134;2024-02-14T05:23:31;21.87;;;14.30;;
70545;SDS011;58098;51.680;5.134;2024-02-14T05:25:56;15.93;;;12.03;;
70545;SDS011;58098;51.680;5.134;2024-02-14T05:28:21;24.10;;;17.10;;
70545;SDS011;58098;51.680;5.134;2024-02-14T05:30:47;22.80;;;15.23;;
70545;SDS011;58098;51.680;5.134;2024-02-14T05:33:12;25.43;;;15.10;;
70545;SDS011;58098;51.680;5.134;2024-02-14T05:35:37;24.47;;;16.93;;
70545;SDS011;58098;51.680;5.134;2024-02-14T05:38:03;25.23;;;15.27;;
70545;SDS011;58098;51.680;5.134;2024-02-14T05:40:29;22.23;;;14.13;;
70545;SDS011;58098;51.680;5.134;2024-02-14T05:42:55;22.97;;;15.10;;
70545;SDS011;58098;51.680;5.134;2024-02-14T05:45:21;20.17;;;14.23;;
70545;SDS011;58098;51.680;5.134;2024-02-14T05:47:46;23.07;;;14.43;;
70545;SDS011;58098;51.680;5.134;2024-02-14T05:50:12;22.70;;;14.77;;
70545;SDS011;58098;51.680;5.134;2024-02-14T05:52:38;19.60;;;13.80;;
70545;SDS011;58098;51.680;5.134;2024-02-14T05:55:03;18.83;;;14.90;;
70545;SDS011;58098;51.680;5.134;2024-02-14T05:57:30;20.35;;;15.10;;
70545;SDS011;58098;51.680;5.134;2024-02-14T05:59:55;19.97;;;14.77;;
70545;SDS011;58098;51.680;5.134;2024-02-14T06:02:20;18.73;;;13.43;;
70545;SDS011;58098;51.680;5.134;2024-02-14T06:04:46;19.98;;;14.52;;
70545;SDS011;58098;51.680;5.134;2024-02-14T06:07:11;19.90;;;13.67;;
70545;SDS011;58098;51.680;5.134;2024-02-14T06:09:37;22.47;;;14.13;;
70545;SDS011;58098;51.680;5.134;2024-02-14T06:12:03;18.35;;;13.88;;
70545;SDS011;58098;51.680;5.134;2024-02-14T06:14:29;21.77;;;15.38;;
70545;SDS011;58098;51.680;5.134;2024-02-14T06:16:55;22.40;;;16.43;;
70545;SDS011;58098;51.680;5.134;2024-02-14T06:19:21;26.95;;;15.63;;
70545;SDS011;58098;51.680;5.134;2024-02-14T06:21:47;26.17;;;16.60;;
70545;SDS011;58098;51.680;5.134;2024-02-14T06:24:12;30.40;;;16.37;;
70545;SDS011;58098;51.680;5.134;2024-02-14T06:26:38;21.63;;;15.52;;
70545;SDS011;58098;51.680;5.134;2024-02-14T06:29:04;27.33;;;17.03;;
70545;SDS011;58098;51.680;5.134;2024-02-14T06:31:29;25.37;;;17.53;;
70545;SDS011;58098;51.680;5.134;2024-02-14T06:33:54;35.00;;;21.40;;
70545;SDS011;58098;51.680;5.134;2024-02-14T06:36:19;28.67;;;17.97;;
70545;SDS011;58098;51.680;5.134;2024-02-14T06:38:45;28.07;;;17.23;;
70545;SDS011;58098;51.680;5.134;2024-02-14T06:41:11;28.60;;;16.98;;
70545;SDS011;58098;51.680;5.134;2024-02-14T06:43:37;31.77;;;20.23;;
70545;SDS011;58098;51.680;5.134;2024-02-14T06:46:04;30.87;;;20.47;;
70545;SDS011;58098;51.680;5.134;2024-02-14T06:48:30;28.58;;;20.33;;
70545;SDS011;58098;51.680;5.134;2024-02-14T06:50:56;30.20;;;19.20;;
70545;SDS011;58098;51.680;5.134;2024-02-14T06:53:23;35.85;;;21.30;;
70545;SDS011;58098;51.680;5.134;2024-02-14T06:55:49;34.03;;;18.33;;
70545;SDS011;58098;51.680;5.134;2024-02-14T06:58:14;29.83;;;17.93;;
70545;SDS011;58098;51.680;5.134;2024-02-14T07:00:39;32.87;;;20.63;;
70545;SDS011;58098;51.680;5.134;2024-02-14T07:03:05;31.83;;;18.55;;
70545;SDS011;58098;51.680;5.134;2024-02-14T07:05:30;33.80;;;20.10;;
70545;SDS011;58098;51.680;5.134;2024-02-14T07:07:55;32.37;;;20.90;;
70545;SDS011;58098;51.680;5.134;2024-02-14T07:10:21;24.87;;;17.93;;
70545;SDS011;58098;51.680;5.134;2024-02-14T07:12:47;27.17;;;17.48;;
70545;SDS011;58098;51.680;5.134;2024-02-14T07:15:12;24.37;;;16.73;;
70545;SDS011;58098;51.680;5.134;2024-02-14T07:17:37;25.63;;;16.50;;
70545;SDS011;58098;51.680;5.134;2024-02-14T07:20:06;25.40;;;16.75;;
70545;SDS011;58098;51.680;5.134;2024-02-14T07:22:35;26.30;;;17.30;;
70545;SDS011;58098;51.680;5.134;2024-02-14T07:25:01;28.50;;;19.03;;
70545;SDS011;58098;51.680;5.134;2024-02-14T07:27:26;31.83;;;18.75;;
70545;SDS011;58098;51.680;5.134;2024-02-14T07:29:52;30.00;;;17.67;;
70545;SDS011;58098;51.680;5.134;2024-02-14T07:32:17;34.10;;;19.70;;
70545;SDS011;58098;51.680;5.134;2024-02-14T07:34:43;34.53;;;21.37;;
70545;SDS011;58098;51.680;5.134;2024-02-14T07:37:08;29.97;;;18.87;;
70545;SDS011;58098;51.680;5.134;2024-02-14T07:39:34;33.90;;;20.50;;
70545;SDS011;58098;51.680;5.134;2024-02-14T07:42:00;37.43;;;21.60;;
70545;SDS011;58098;51.680;5.134;2024-02-14T07:44:26;38.55;;;18.42;;
70545;SDS011;58098;51.680;5.134;2024-02-14T07:46:51;34.20;;;18.97;;
70545;SDS011;58098;51.680;5.134;2024-02-14T07:49:18;32.72;;;17.83;;
70545;SDS011;58098;51.680;5.134;2024-02-14T07:51:44;29.92;;;19.52;;
70545;SDS011;58098;51.680;5.134;2024-02-14T07:54:09;36.67;;;21.80;;
70545;SDS011;58098;51.680;5.134;2024-02-14T07:56:34;34.77;;;18.40;;
70545;SDS011;58098;51.680;5.134;2024-02-14T07:59:00;34.20;;;19.60;;
70545;SDS011;58098;51.680;5.134;2024-02-14T08:01:25;31.90;;;19.63;;
70545;SDS011;58098;51.680;5.134;2024-02-14T08:03:50;31.47;;;19.37;;
70545;SDS011;58098;51.680;5.134;2024-02-14T08:06:16;34.80;;;19.13;;
70545;SDS011;58098;51.680;5.134;2024-02-14T08:08:42;35.40;;;17.30;;
70545;SDS011;58098;51.680;5.134;2024-02-14T08:11:08;30.42;;;17.95;;
70545;SDS011;58098;51.680;5.134;2024-02-14T08:13:34;31.93;;;18.77;;
70545;SDS011;58098;51.680;5.134;2024-02-14T08:15:59;27.57;;;16.43;;
70545;SDS011;58098;51.680;5.134;2024-02-14T08:18:26;30.00;;;18.17;;
70545;SDS011;58098;51.680;5.134;2024-02-14T08:20:52;31.13;;;17.50;;
70545;SDS011;58098;51.680;5.134;2024-02-14T08:23:18;30.47;;;17.53;;
70545;SDS011;58098;51.680;5.134;2024-02-14T08:25:44;33.37;;;18.13;;
70545;SDS011;58098;51.680;5.134;2024-02-14T08:28:10;31.90;;;17.20;;
70545;SDS011;58098;51.680;5.134;2024-02-14T08:30:36;27.47;;;16.20;;
70545;SDS011;58098;51.680;5.134;2024-02-14T08:33:02;32.80;;;18.33;;
70545;SDS011;58098;51.680;5.134;2024-02-14T08:35:28;24.57;;;14.90;;
70545;SDS011;58098;51.680;5.134;2024-02-14T08:37:53;27.03;;;16.63;;
70545;SDS011;58098;51.680;5.134;2024-02-14T08:40:19;30.15;;;17.52;;
70545;SDS011;58098;51.680;5.134;2024-02-14T08:42:44;27.63;;;18.00;;
70545;SDS011;58098;51.680;5.134;2024-02-14T08:45:09;30.67;;;19.97;;
70545;SDS011;58098;51.680;5.134;2024-02-14T08:47:35;36.60;;;18.17;;
70545;SDS011;58098;51.680;5.134;2024-02-14T08:50:01;27.08;;;17.23;;
70545;SDS011;58098;51.680;5.134;2024-02-14T08:52:28;28.88;;;15.73;;
70545;SDS011;58098;51.680;5.134;2024-02-14T08:54:53;28.53;;;17.03;;
70545;SDS011;58098;51.680;5.134;2024-02-14T08:57:19;25.17;;;16.27;;
70545;SDS011;58098;51.680;5.134;2024-02-14T08:59:44;27.38;;;15.43;;
70545;SDS011;58098;51.680;5.134;2024-02-14T09:02:12;25.35;;;13.52;;
70545;SDS011;58098;51.680;5.134;2024-02-14T09:04:38;24.07;;;13.50;;
70545;SDS011;58098;51.680;5.134;2024-02-14T09:07:04;26.10;;;14.43;;
70545;SDS011;58098;51.680;5.134;2024-02-14T09:09:29;19.13;;;12.10;;
70545;SDS011;58098;51.680;5.134;2024-02-14T09:11:54;24.00;;;12.77;;
70545;SDS011;58098;51.680;5.134;2024-02-14T09:14:20;20.00;;;12.73;;
70545;SDS011;58098;51.680;5.134;2024-02-14T09:16:45;23.30;;;12.77;;
70545;SDS011;58098;51.680;5.134;2024-02-14T09:19:11;20.90;;;11.80;;
70545;SDS011;58098;51.680;5.134;2024-02-14T09:21:37;21.50;;;12.57;;
70545;SDS011;58098;51.680;5.134;2024-02-14T09:24:03;22.02;;;13.60;;
70545;SDS011;58098;51.680;5.134;2024-02-14T09:26:29;19.20;;;10.77;;
70545;SDS011;58098;51.680;5.134;2024-02-14T09:28:54;22.13;;;12.25;;
70545;SDS011;58098;51.680;5.134;2024-02-14T09:31:20;18.67;;;14.02;;
70545;SDS011;58098;51.680;5.134;2024-02-14T09:33:49;23.10;;;13.20;;
70545;SDS011;58098;51.680;5.134;2024-02-14T09:36:14;21.25;;;11.77;;
70545;SDS011;58098;51.680;5.134;2024-02-14T09:38:41;25.37;;;13.07;;
70545;SDS011;58098;51.680;5.134;2024-02-14T09:41:11;18.55;;;11.80;;
70545;SDS011;58098;51.680;5.134;2024-02-14T09:43:43;18.55;;;12.20;;
70545;SDS011;58098;51.680;5.134;2024-02-14T09:46:11;18.10;;;11.93;;
70545;SDS011;58098;51.680;5.134;2024-02-14T09:48:38;21.80;;;11.05;;
70545;SDS011;58098;51.680;5.134;2024-02-14T09:51:04;13.23;;;9.93;;
70545;SDS011;58098;51.680;5.134;2024-02-14T09:53:32;17.42;;;11.32;;
70545;SDS011;58098;51.680;5.134;2024-02-14T09:55:57;13.55;;;10.23;;
70545;SDS011;58098;51.680;5.134;2024-02-14T09:58:24;17.07;;;10.60;;
70545;SDS011;58098;51.680;5.134;2024-02-14T10:00:58;16.00;;;10.60;;
70545;SDS011;58098;51.680;5.134;2024-02-14T10:03:24;17.35;;;10.85;;
70545;SDS011;58098;51.680;5.134;2024-02-14T10:05:51;18.13;;;11.18;;
70545;SDS011;58098;51.680;5.134;2024-02-14T10:08:16;15.10;;;11.13;;
70545;SDS011;58098;51.680;5.134;2024-02-14T10:10:43;19.20;;;12.05;;
70545;SDS011;58098;51.680;5.134;2024-02-14T10:13:09;17.67;;;11.80;;
70545;SDS011;58098;51.680;5.134;2024-02-14T10:15:35;15.15;;;10.02;;
70545;SDS011;58098;51.680;5.134;2024-02-14T10:18:01;13.37;;;9.27;;
70545;SDS011;58098;51.680;5.134;2024-02-14T10:20:28;15.65;;;9.80;;
70545;SDS011;58098;51.680;5.134;2024-02-14T10:23:01;18.20;;;9.40;;
70545;SDS011;58098;51.680;5.134;2024-02-14T10:25:28;17.90;;;9.27;;
70545;SDS011;58098;51.680;5.134;2024-02-14T10:27:53;15.27;;;9.30;;
70545;SDS011;58098;51.680;5.134;2024-02-14T10:30:19;14.23;;;9.73;;
70545;SDS011;58098;51.680;5.134;2024-02-14T10:32:46;20.93;;;10.50;;
70545;SDS011;58098;51.680;5.134;2024-02-14T10:35:15;14.57;;;9.40;;
70545;SDS011;58098;51.680;5.134;2024-02-14T10:37:42;12.00;;;9.02;;
70545;SDS011;58098;51.680;5.134;2024-02-14T10:40:07;15.83;;;10.30;;
70545;SDS011;58098;51.680;5.134;2024-02-14T10:42:34;13.65;;;9.63;;
70545;SDS011;58098;51.680;5.134;2024-02-14T10:45:00;14.18;;;10.00;;
70545;SDS011;58098;51.680;5.134;2024-02-14T10:47:34;18.17;;;10.60;;
70545;SDS011;58098;51.680;5.134;2024-02-14T10:50:05;14.33;;;9.40;;
70545;SDS011;58098;51.680;5.134;2024-02-14T10:52:32;12.35;;;8.70;;
70545;SDS011;58098;51.680;5.134;2024-02-14T10:54:59;15.10;;;9.98;;
70545;SDS011;58098;51.680;5.134;2024-02-14T10:57:28;16.13;;;10.18;;
70545;SDS011;58098;51.680;5.134;2024-02-14T10:59:54;17.08;;;11.20;;
70545;SDS011;58098;51.680;5.134;2024-02-14T11:02:20;15.27;;;10.27;;
70545;SDS011;58098;51.680;5.134;2024-02-14T11:04:47;11.55;;;8.93;;
70545;SDS011;58098;51.680;5.134;2024-02-14T11:07:13;12.77;;;10.27;;
70545;SDS011;58098;51.680;5.134;2024-02-14T11:09:41;10.88;;;9.10;;
70545;SDS011;58098;51.680;5.134;2024-02-14T11:12:07;14.10;;;9.87;;
70545;SDS011;58098;51.680;5.134;2024-02-14T11:14:36;11.30;;;8.23;;
70545;SDS011;58098;51.680;5.134;2024-02-14T11:17:04;12.50;;;8.95;;
70545;SDS011;58098;51.680;5.134;2024-02-14T11:19:34;12.90;;;8.83;;
70545;SDS011;58098;51.680;5.134;2024-02-14T11:22:10;14.23;;;8.60;;
70545;SDS011;58098;51.680;5.134;2024-02-14T11:24:38;10.18;;;8.10;;
70545;SDS011;58098;51.680;5.134;2024-02-14T11:27:03;9.13;;;7.33;;
70545;SDS011;58098;51.680;5.134;2024-02-14T11:29:34;8.93;;;7.65;;
70545;SDS011;58098;51.680;5.134;2024-02-14T11:31:59;10.50;;;7.63;;
70545;SDS011;58098;51.680;5.134;2024-02-14T11:34:27;12.02;;;9.20;;
70545;SDS011;58098;51.680;5.134;2024-02-14T11:36:52;11.18;;;7.90;;
70545;SDS011;58098;51.680;5.134;2024-02-14T11:39:18;10.63;;;7.77;;
70545;SDS011;58098;51.680;5.134;2024-02-14T11:41:43;15.30;;;8.40;;
70545;SDS011;58098;51.680;5.134;2024-02-14T11:44:08;9.17;;;7.80;;
70545;SDS011;58098;51.680;5.134;2024-02-14T11:46:35;9.73;;;8.40;;
70545;SDS011;58098;51.680;5.134;2024-02-14T11:49:02;12.68;;;8.25;;
70545;SDS011;58098;51.680;5.134;2024-02-14T11:51:29;11.20;;;8.93;;
70545;SDS011;58098;51.680;5.134;2024-02-14T11:53:56;10.93;;;8.40;;
70545;SDS011;58098;51.680;5.134;2024-02-14T11:56:29;14.30;;;8.25;;
70545;SDS011;58098;51.680;5.134;2024-02-14T11:58:58;11.97;;;8.47;;
70545;SDS011;58098;51.680;5.134;2024-02-14T12:01:27;10.32;;;7.80;;
70545;SDS011;58098;51.680;5.134;2024-02-14T12:03:53;11.82;;;8.10;;
70545;SDS011;58098;51.680;5.134;2024-02-14T12:06:19;11.10;;;8.30;;
70545;SDS011;58098;51.680;5.134;2024-02-14T12:08:44;11.65;;;8.43;;
70545;SDS011;58098;51.680;5.134;2024-02-14T12:11:10;11.90;;;8.03;;
70545;SDS011;58098;51.680;5.134;2024-02-14T12:13:35;11.37;;;8.13;;
70545;SDS011;58098;51.680;5.134;2024-02-14T12:16:03;13.45;;;8.50;;
70545;SDS011;58098;51.680;5.134;2024-02-14T12:18:28;11.60;;;8.48;;
70545;SDS011;58098;51.680;5.134;2024-02-14T12:21:02;11.27;;;8.50;;
70545;SDS011;58098;51.680;5.134;2024-02-14T12:23:28;12.13;;;9.30;;
70545;SDS011;58098;51.680;5.134;2024-02-14T12:25:54;11.27;;;7.90;;
70545;SDS011;58098;51.680;5.134;2024-02-14T12:28:28;12.60;;;8.18;;
70545;SDS011;58098;51.680;5.134;2024-02-14T12:30:56;9.97;;;7.83;;
70545;SDS011;58098;51.680;5.134;2024-02-14T12:33:22;11.30;;;8.25;;
70545;SDS011;58098;51.680;5.134;2024-02-14T12:35:49;11.10;;;7.40;;
70545;SDS011;58098;51.680;5.134;2024-02-14T12:38:15;11.88;;;8.63;;
70545;SDS011;58098;51.680;5.134;2024-02-14T12:40:42;10.73;;;7.57;;
70545;SDS011;58098;51.680;5.134;2024-02-14T12:43:08;9.60;;;7.93;;
70545;SDS011;58098;51.680;5.134;2024-02-14T12:45:34;9.35;;;7.95;;
70545;SDS011;58098;51.680;5.134;2024-02-14T12:48:00;10.07;;;8.40;;
70545;SDS011;58098;51.680;5.134;2024-02-14T12:50:25;10.57;;;8.05;;
70545;SDS011;58098;51.680;5.134;2024-02-14T12:52:51;10.57;;;8.00;;
70545;SDS011;58098;51.680;5.134;2024-02-14T12:55:16;9.40;;;7.13;;
70545;SDS011;58098;51.680;5.134;2024-02-14T12:57:43;13.17;;;8.23;;
70545;SDS011;58098;51.680;5.134;2024-02-14T13:00:09;10.20;;;8.18;;
70545;SDS011;58098;51.680;5.134;2024-02-14T13:02:35;11.67;;;7.40;;
70545;SDS011;58098;51.680;5.134;2024-02-14T13:05:00;9.90;;;8.05;;
70545;SDS011;58098;51.680;5.134;2024-02-14T13:07:27;11.63;;;9.20;;
70545;SDS011;58098;51.680;5.134;2024-02-14T13:09:53;12.97;;;8.57;;
70545;SDS011;58098;51.680;5.134;2024-02-14T13:12:20;11.23;;;8.52;;
70545;SDS011;58098;51.680;5.134;2024-02-14T13:14:46;10.82;;;9.50;;
70545;SDS011;58098;51.680;5.134;2024-02-14T13:17:11;10.63;;;8.98;;
70545;SDS011;58098;51.680;5.134;2024-02-14T13:19:37;10.50;;;7.97;;
70545;SDS011;58098;51.680;5.134;2024-02-14T13:22:03;11.82;;;9.10;;
70545;SDS011;58098;51.680;5.134;2024-02-14T13:24:29;10.87;;;8.43;;
70545;SDS011;58098;51.680;5.134;2024-02-14T13:26:54;12.07;;;8.33;;
70545;SDS011;58098;51.680;5.134;2024-02-14T13:29:22;11.50;;;9.35;;
70545;SDS011;58098;51.680;5.134;2024-02-14T13:31:49;12.10;;;9.75;;
70545;SDS011;58098;51.680;5.134;2024-02-14T13:34:15;14.10;;;10.07;;
70545;SDS011;58098;51.680;5.134;2024-02-14T13:36:40;10.93;;;9.83;;
70545;SDS011;58098;51.680;5.134;2024-02-14T13:39:06;12.02;;;10.68;;
70545;SDS011;58098;51.680;5.134;2024-02-14T13:41:32;14.30;;;10.98;;
70545;SDS011;58098;51.680;5.134;2024-02-14T13:43:58;16.60;;;11.77;;
70545;SDS011;58098;51.680;5.134;2024-02-14T13:46:23;14.13;;;11.13;;
70545;SDS011;58098;51.680;5.134;2024-02-14T13:48:51;11.90;;;9.50;;
70545;SDS011;58098;51.680;5.134;2024-02-14T13:51:16;14.87;;;11.00;;
70545;SDS011;58098;51.680;5.134;2024-02-14T13:53:42;15.00;;;11.30;;
70545;SDS011;58098;51.680;5.134;2024-02-14T13:56:07;16.00;;;11.25;;
70545;SDS011;58098;51.680;5.134;2024-02-14T13:58:32;17.60;;;12.10;;
70545;SDS011;58098;51.680;5.134;2024-02-14T14:00:58;15.77;;;11.43;;
70545;SDS011;58098;51.680;5.134;2024-02-14T14:03:24;16.25;;;12.55;;
70545;SDS011;58098;51.680;5.134;2024-02-14T14:05:49;17.30;;;12.77;;
70545;SDS011;58098;51.680;5.134;2024-02-14T14:08:15;16.20;;;13.03;;
70545;SDS011;58098;51.680;5.134;2024-02-14T14:10:40;18.40;;;13.88;;
70545;SDS011;58098;51.680;5.134;2024-02-14T14:13:08;17.90;;;11.80;;
70545;SDS011;58098;51.680;5.134;2024-02-14T14:15:33;18.95;;;12.82;;
70545;SDS011;58098;51.680;5.134;2024-02-14T14:17:59;17.37;;;12.00;;